Laguna, New Mexico
Current Conditions -  °F | °C
As of 7:56 AM on Wednesday 22 Oct 2014 (Local Time) from KGNT Reporting Station
Haze Haze  
Wind Chill: 37°   Ceiling: 200
Heat Index: 37°   Visibility: 1.7mi
Dew Point: 37°   Wind: 3mph
Humidity: 100%   Direction: 320°NW
Pressure: 30.24"   Gusts: NA
Location:  35.04°N, 107.39°W
Report Text: KGNT 221356Z AUTO 32003KT 1 3/4SM BR BKN002 03/03 A3024 RMK AO2
Loading
Personal Weather Stations






























Interactive Weather Map
Tropical Storm Tracking
New forecast layout! Learn more

10-Day Weather Forecast

Advertisements
Track Severe Weather on mobile